<?xml version="1.0" encoding="UTF-8" standalone="no" ?>
<gpx xmlns="http://www.topografix.com/GPX/1/1" xmlns:xsi="http://www.w3.org/2001/XMLSchema-instance" xsi:schemaLocation="http://www.topografix.com/GPX/1/1 http://www.topografix.com/GPX/1/1/gpx.xsd" version="1.1" creator="VisuGPX - https://www.visugpx.com">
  <metadata>
    <name>savenay-cordemais-lavau</name>
    <desc><![CDATA[Circuit partant partant de Savenay pour rejoindre Cordemais,puis retour par lavau s / Loire.Passages dans les marais et joli point de vu sur l'estuaire de la Loire à cordemais. Retour par le trou bleu à Lavau s/Loire.]]></desc>
  </metadata>
  <trk>
    <name><![CDATA[Savenay-cordemais-lavau Sur Loire on GPSies.com]]></name>
    <trkseg>
      <trkpt lat="47.32027" lon="-1.91005">
        <ele>38.10938</ele>
        <time>2009-11-04T08:33:46Z</time>
      </trkpt>
      <trkpt lat="47.32028" lon="-1.91009">
        <ele>38.10938</ele>
        <time>2009-11-04T08:33:47Z</time>
      </trkpt>
      <trkpt lat="47.32042" lon="-1.91016">
        <ele>38.10938</ele>
        <time>2009-11-04T08:33:51Z</time>
      </trkpt>
      <trkpt lat="47.32073" lon="-1.91019">
        <ele>37.62866</ele>
        <time>2009-11-04T08:33:58Z</time>
      </trkpt>
      <trkpt lat="47.32108" lon="-1.9103">
        <ele>37.14807</ele>
        <time>2009-11-04T08:34:06Z</time>
      </trkpt>
      <trkpt lat="47.32116" lon="-1.9102">
        <ele>37.14807</ele>
        <time>2009-11-04T08:34:09Z</time>
      </trkpt>
      <trkpt lat="47.3213" lon="-1.90988">
        <ele>37.62866</ele>
        <time>2009-11-04T08:34:15Z</time>
      </trkpt>
      <trkpt lat="47.32152" lon="-1.90946">
        <ele>36.18677</ele>
        <time>2009-11-04T08:34:22Z</time>
      </trkpt>
      <trkpt lat="47.32171" lon="-1.90923">
        <ele>36.18677</ele>
        <time>2009-11-04T08:34:27Z</time>
      </trkpt>
      <trkpt lat="47.32197" lon="-1.90894">
        <ele>36.18677</ele>
        <time>2009-11-04T08:34:33Z</time>
      </trkpt>
      <trkpt lat="47.32225" lon="-1.90863">
        <ele>35.70605</ele>
        <time>2009-11-04T08:34:39Z</time>
      </trkpt>
      <trkpt lat="47.32265" lon="-1.90819">
        <ele>33.78345</ele>
        <time>2009-11-04T08:34:48Z</time>
      </trkpt>
      <trkpt lat="47.32312" lon="-1.90773">
        <ele>32.34155</ele>
        <time>2009-11-04T08:34:58Z</time>
      </trkpt>
      <trkpt lat="47.32356" lon="-1.90745">
        <ele>31.38013</ele>
        <time>2009-11-04T08:35:06Z</time>
      </trkpt>
      <trkpt lat="47.32401" lon="-1.90727">
        <ele>29.93811</ele>
        <time>2009-11-04T08:35:14Z</time>
      </trkpt>
      <trkpt lat="47.32463" lon="-1.9071">
        <ele>28.0155</ele>
        <time>2009-11-04T08:35:25Z</time>
      </trkpt>
      <trkpt lat="47.32505" lon="-1.90697">
        <ele>27.05432</ele>
        <time>2009-11-04T08:35:33Z</time>
      </trkpt>
      <trkpt lat="47.32553" lon="-1.90683">
        <ele>26.0929</ele>
        <time>2009-11-04T08:35:42Z</time>
      </trkpt>
      <trkpt lat="47.32596" lon="-1.9067">
        <ele>25.6123</ele>
        <time>2009-11-04T08:35:50Z</time>
      </trkpt>
      <trkpt lat="47.3264" lon="-1.90657">
        <ele>23.68958</ele>
        <time>2009-11-04T08:35:58Z</time>
      </trkpt>
      <trkpt lat="47.32676" lon="-1.90644">
        <ele>22.72827</ele>
        <time>2009-11-04T08:36:06Z</time>
      </trkpt>
      <trkpt lat="47.32685" lon="-1.90631">
        <ele>23.20898</ele>
        <time>2009-11-04T08:36:09Z</time>
      </trkpt>
      <trkpt lat="47.32685" lon="-1.90615">
        <ele>23.68958</ele>
        <time>2009-11-04T08:36:11Z</time>
      </trkpt>
      <trkpt lat="47.32679" lon="-1.90527">
        <ele>23.20898</ele>
        <time>2009-11-04T08:36:22Z</time>
      </trkpt>
      <trkpt lat="47.32674" lon="-1.90453">
        <ele>22.72827</ele>
        <time>2009-11-04T08:36:31Z</time>
      </trkpt>
      <trkpt lat="47.32669" lon="-1.9038">
        <ele>24.17029</ele>
        <time>2009-11-04T08:36:40Z</time>
      </trkpt>
      <trkpt lat="47.32662" lon="-1.90278">
        <ele>26.0929</ele>
        <time>2009-11-04T08:36:53Z</time>
      </trkpt>
      <trkpt lat="47.32662" lon="-1.90216">
        <ele>26.0929</ele>
        <time>2009-11-04T08:37:01Z</time>
      </trkpt>
      <trkpt lat="47.32665" lon="-1.90162">
        <ele>26.0929</ele>
        <time>2009-11-04T08:37:08Z</time>
      </trkpt>
      <trkpt lat="47.32663" lon="-1.90107">
        <ele>26.0929</ele>
        <time>2009-11-04T08:37:15Z</time>
      </trkpt>
      <trkpt lat="47.32662" lon="-1.90055">
        <ele>27.05432</ele>
        <time>2009-11-04T08:37:22Z</time>
      </trkpt>
      <trkpt lat="47.32659" lon="-1.90003">
        <ele>28.0155</ele>
        <time>2009-11-04T08:37:30Z</time>
      </trkpt>
      <trkpt lat="47.32646" lon="-1.89998">
        <ele>28.0155</ele>
        <time>2009-11-04T08:37:34Z</time>
      </trkpt>
      <trkpt lat="47.32641" lon="-1.89999">
        <ele>27.53491</ele>
        <time>2009-11-04T08:37:35Z</time>
      </trkpt>
      <trkpt lat="47.32623" lon="-1.89995">
        <ele>28.97693</ele>
        <time>2009-11-04T08:37:40Z</time>
      </trkpt>
      <trkpt lat="47.3261" lon="-1.89978">
        <ele>28.49622</ele>
        <time>2009-11-04T08:37:44Z</time>
      </trkpt>
      <trkpt lat="47.3259" lon="-1.89952">
        <ele>29.45752</ele>
        <time>2009-11-04T08:37:50Z</time>
      </trkpt>
      <trkpt lat="47.32567" lon="-1.89933">
        <ele>29.93811</ele>
        <time>2009-11-04T08:37:57Z</time>
      </trkpt>
      <trkpt lat="47.32547" lon="-1.89911">
        <ele>30.41882</ele>
        <time>2009-11-04T08:38:04Z</time>
      </trkpt>
      <trkpt lat="47.32532" lon="-1.89892">
        <ele>30.89954</ele>
        <time>2009-11-04T08:38:09Z</time>
      </trkpt>
      <trkpt lat="47.32512" lon="-1.89863">
        <ele>30.89954</ele>
        <time>2009-11-04T08:38:16Z</time>
      </trkpt>
      <trkpt lat="47.32499" lon="-1.89843">
        <ele>30.89954</ele>
        <time>2009-11-04T08:38:21Z</time>
      </trkpt>
      <trkpt lat="47.32491" lon="-1.89826">
        <ele>30.89954</ele>
        <time>2009-11-04T08:38:25Z</time>
      </trkpt>
      <trkpt lat="47.32483" lon="-1.89801">
        <ele>30.89954</ele>
        <time>2009-11-04T08:38:30Z</time>
      </trkpt>
      <trkpt lat="47.32478" lon="-1.89786">
        <ele>30.89954</ele>
        <time>2009-11-04T08:38:33Z</time>
      </trkpt>
      <trkpt lat="47.32465" lon="-1.89754">
        <ele>30.89954</ele>
        <time>2009-11-04T08:38:39Z</time>
      </trkpt>
      <trkpt lat="47.32458" lon="-1.89748">
        <ele>30.89954</ele>
        <time>2009-11-04T08:38:41Z</time>
      </trkpt>
      <trkpt lat="47.32435" lon="-1.89738">
        <ele>30.41882</ele>
        <time>2009-11-04T08:38:47Z</time>
      </trkpt>
      <trkpt lat="47.32431" lon="-1.89738">
        <ele>29.93811</ele>
        <time>2009-11-04T08:38:48Z</time>
      </trkpt>
      <trkpt lat="47.32402" lon="-1.89733">
        <ele>29.93811</ele>
        <time>2009-11-04T08:38:55Z</time>
      </trkpt>
      <trkpt lat="47.32385" lon="-1.89731">
        <ele>29.45752</ele>
        <time>2009-11-04T08:38:59Z</time>
      </trkpt>
      <trkpt lat="47.3236" lon="-1.89731">
        <ele>28.49622</ele>
        <time>2009-11-04T08:39:05Z</time>
      </trkpt>
      <trkpt lat="47.32342" lon="-1.89732">
        <ele>28.0155</ele>
        <time>2009-11-04T08:39:09Z</time>
      </trkpt>
      <trkpt lat="47.32318" lon="-1.89731">
        <ele>25.6123</ele>
        <time>2009-11-04T08:39:14Z</time>
      </trkpt>
      <trkpt lat="47.32308" lon="-1.89729">
        <ele>25.6123</ele>
        <time>2009-11-04T08:39:16Z</time>
      </trkpt>
      <trkpt lat="47.32298" lon="-1.89725">
        <ele>25.13171</ele>
        <time>2009-11-04T08:39:18Z</time>
      </trkpt>
      <trkpt lat="47.32271" lon="-1.89722">
        <ele>24.651</ele>
        <time>2009-11-04T08:39:24Z</time>
      </trkpt>
      <trkpt lat="47.32265" lon="-1.89719">
        <ele>24.651</ele>
        <time>2009-11-04T08:39:26Z</time>
      </trkpt>
      <trkpt lat="47.32256" lon="-1.89695">
        <ele>24.651</ele>
        <time>2009-11-04T08:39:31Z</time>
      </trkpt>
      <trkpt lat="47.32255" lon="-1.89689">
        <ele>24.651</ele>
        <time>2009-11-04T08:39:32Z</time>
      </trkpt>
      <trkpt lat="47.32245" lon="-1.89649">
        <ele>24.651</ele>
        <time>2009-11-04T08:39:40Z</time>
      </trkpt>
      <trkpt lat="47.32237" lon="-1.89646">
        <ele>23.68958</ele>
        <time>2009-11-04T08:39:45Z</time>
      </trkpt>
      <trkpt lat="47.32233" lon="-1.89652">
        <ele>23.68958</ele>
        <time>2009-11-04T08:39:47Z</time>
      </trkpt>
      <trkpt lat="47.32215" lon="-1.89697">
        <ele>22.72827</ele>
        <time>2009-11-04T08:39:55Z</time>
      </trkpt>
      <trkpt lat="47.32198" lon="-1.89741">
        <ele>23.20898</ele>
        <time>2009-11-04T08:40:02Z</time>
      </trkpt>
      <trkpt lat="47.32185" lon="-1.89774">
        <ele>23.68958</ele>
        <time>2009-11-04T08:40:08Z</time>
      </trkpt>
      <trkpt lat="47.32164" lon="-1.8983">
        <ele>24.17029</ele>
        <time>2009-11-04T08:40:17Z</time>
      </trkpt>
      <trkpt lat="47.32145" lon="-1.89876">
        <ele>24.17029</ele>
        <time>2009-11-04T08:40:25Z</time>
      </trkpt>
      <trkpt lat="47.32124" lon="-1.89921">
        <ele>24.651</ele>
        <time>2009-11-04T08:40:33Z</time>
      </trkpt>
      <trkpt lat="47.32093" lon="-1.89974">
        <ele>25.6123</ele>
        <time>2009-11-04T08:40:43Z</time>
      </trkpt>
      <trkpt lat="47.32071" lon="-1.90007">
        <ele>26.0929</ele>
        <time>2009-11-04T08:40:50Z</time>
      </trkpt>
      <trkpt lat="47.32042" lon="-1.90052">
        <ele>26.57361</ele>
        <time>2009-11-04T08:40:59Z</time>
      </trkpt>
      <trkpt lat="47.32012" lon="-1.90103">
        <ele>27.53491</ele>
        <time>2009-11-04T08:41:09Z</time>
      </trkpt>
      <trkpt lat="47.32002" lon="-1.90132">
        <ele>28.0155</ele>
        <time>2009-11-04T08:41:15Z</time>
      </trkpt>
      <trkpt lat="47.31996" lon="-1.90139">
        <ele>28.0155</ele>
        <time>2009-11-04T08:41:18Z</time>
      </trkpt>
      <trkpt lat="47.31983" lon="-1.90143">
        <ele>27.53491</ele>
        <time>2009-11-04T08:41:23Z</time>
      </trkpt>
      <trkpt lat="47.3198" lon="-1.90145">
        <ele>27.53491</ele>
        <time>2009-11-04T08:41:24Z</time>
      </trkpt>
      <trkpt lat="47.31971" lon="-1.90161">
        <ele>27.53491</ele>
        <time>2009-11-04T08:41:29Z</time>
      </trkpt>
      <trkpt lat="47.31959" lon="-1.90179">
        <ele>27.53491</ele>
        <time>2009-11-04T08:41:34Z</time>
      </trkpt>
      <trkpt lat="47.31941" lon="-1.90203">
        <ele>27.05432</ele>
        <time>2009-11-04T08:41:40Z</time>
      </trkpt>
      <trkpt lat="47.31935" lon="-1.90213">
        <ele>27.05432</ele>
        <time>2009-11-04T08:41:42Z</time>
      </trkpt>
      <trkpt lat="47.3192" lon="-1.90236">
        <ele>26.57361</ele>
        <time>2009-11-04T08:41:47Z</time>
      </trkpt>
      <trkpt lat="47.31903" lon="-1.9026">
        <ele>26.0929</ele>
        <time>2009-11-04T08:41:53Z</time>
      </trkpt>
      <trkpt lat="47.31885" lon="-1.90275">
        <ele>26.0929</ele>
        <time>2009-11-04T08:41:58Z</time>
      </trkpt>
      <trkpt lat="47.31864" lon="-1.90282">
        <ele>26.0929</ele>
        <time>2009-11-04T08:42:04Z</time>
      </trkpt>
      <trkpt lat="47.31842" lon="-1.90286">
        <ele>26.0929</ele>
        <time>2009-11-04T08:42:10Z</time>
      </trkpt>
      <trkpt lat="47.31825" lon="-1.90276">
        <ele>26.0929</ele>
        <time>2009-11-04T08:42:15Z</time>
      </trkpt>
      <trkpt lat="47.31815" lon="-1.90267">
        <ele>26.0929</ele>
        <time>2009-11-04T08:42:18Z</time>
      </trkpt>
      <trkpt lat="47.31792" lon="-1.90251">
        <ele>26.0929</ele>
        <time>2009-11-04T08:42:24Z</time>
      </trkpt>
      <trkpt lat="47.31774" lon="-1.90219">
        <ele>25.13171</ele>
        <time>2009-11-04T08:42:31Z</time>
      </trkpt>
      <trkpt lat="47.31763" lon="-1.90183">
        <ele>24.651</ele>
        <time>2009-11-04T08:42:38Z</time>
      </trkpt>
      <trkpt lat="47.31746" lon="-1.90149">
        <ele>24.651</ele>
        <time>2009-11-04T08:42:45Z</time>
      </trkpt>
      <trkpt lat="47.31734" lon="-1.90129">
        <ele>25.13171</ele>
        <time>2009-11-04T08:42:50Z</time>
      </trkpt>
      <trkpt lat="47.31729" lon="-1.90106">
        <ele>24.651</ele>
        <time>2009-11-04T08:42:54Z</time>
      </trkpt>
      <trkpt lat="47.31719" lon="-1.90085">
        <ele>25.13171</ele>
        <time>2009-11-04T08:42:58Z</time>
      </trkpt>
      <trkpt lat="47.31684" lon="-1.90043">
        <ele>25.6123</ele>
        <time>2009-11-04T08:43:08Z</time>
      </trkpt>
      <trkpt lat="47.31681" lon="-1.9004">
        <ele>25.6123</ele>
        <time>2009-11-04T08:43:09Z</time>
      </trkpt>
      <trkpt lat="47.3165" lon="-1.90003">
        <ele>25.6123</ele>
        <time>2009-11-04T08:43:18Z</time>
      </trkpt>
      <trkpt lat="47.31617" lon="-1.89964">
        <ele>26.0929</ele>
        <time>2009-11-04T08:43:27Z</time>
      </trkpt>
      <trkpt lat="47.31591" lon="-1.89933">
        <ele>26.0929</ele>
        <time>2009-11-04T08:43:34Z</time>
      </trkpt>
      <trkpt lat="47.31559" lon="-1.89891">
        <ele>25.6123</ele>
        <time>2009-11-04T08:43:43Z</time>
      </trkpt>
      <trkpt lat="47.31551" lon="-1.89882">
        <ele>25.6123</ele>
        <time>2009-11-04T08:43:45Z</time>
      </trkpt>
      <trkpt lat="47.31529" lon="-1.89872">
        <ele>26.0929</ele>
        <time>2009-11-04T08:43:50Z</time>
      </trkpt>
      <trkpt lat="47.31511" lon="-1.89882">
        <ele>25.6123</ele>
        <time>2009-11-04T08:43:54Z</time>
      </trkpt>
      <trkpt lat="47.31503" lon="-1.89892">
        <ele>25.6123</ele>
        <time>2009-11-04T08:43:56Z</time>
      </trkpt>
      <trkpt lat="47.31474" lon="-1.89933">
        <ele>25.6123</ele>
        <time>2009-11-04T08:44:04Z</time>
      </trkpt>
      <trkpt lat="47.31449" lon="-1.89946">
        <ele>25.6123</ele>
        <time>2009-11-04T08:44:10Z</time>
      </trkpt>
      <trkpt lat="47.3144" lon="-1.89939">
        <ele>26.57361</ele>
        <time>2009-11-04T08:44:13Z</time>
      </trkpt>
      <trkpt lat="47.31439" lon="-1.89934">
        <ele>26.0929</ele>
        <time>2009-11-04T08:44:14Z</time>
      </trkpt>
      <trkpt lat="47.3143" lon="-1.89894">
        <ele>26.0929</ele>
        <time>2009-11-04T08:44:21Z</time>
      </trkpt>
      <trkpt lat="47.31425" lon="-1.89859">
        <ele>27.05432</ele>
        <time>2009-11-04T08:44:28Z</time>
      </trkpt>
      <trkpt lat="47.31419" lon="-1.89825">
        <ele>26.57361</ele>
        <time>2009-11-04T08:44:34Z</time>
      </trkpt>
      <trkpt lat="47.31412" lon="-1.89788">
        <ele>26.57361</ele>
        <time>2009-11-04T08:44:41Z</time>
      </trkpt>
      <trkpt lat="47.31404" lon="-1.89761">
        <ele>26.57361</ele>
        <time>2009-11-04T08:44:46Z</time>
      </trkpt>
      <trkpt lat="47.31394" lon="-1.89726">
        <ele>27.05432</ele>
        <time>2009-11-04T08:44:53Z</time>
      </trkpt>
      <trkpt lat="47.31386" lon="-1.8969">
        <ele>27.05432</ele>
        <time>2009-11-04T08:45:00Z</time>
      </trkpt>
      <trkpt lat="47.31374" lon="-1.89646">
        <ele>26.0929</ele>
        <time>2009-11-04T08:45:08Z</time>
      </trkpt>
      <trkpt lat="47.31365" lon="-1.89604">
        <ele>25.13171</ele>
        <time>2009-11-04T08:45:15Z</time>
      </trkpt>
      <trkpt lat="47.31359" lon="-1.89572">
        <ele>24.651</ele>
        <time>2009-11-04T08:45:21Z</time>
      </trkpt>
      <trkpt lat="47.31356" lon="-1.89531">
        <ele>24.17029</ele>
        <time>2009-11-04T08:45:28Z</time>
      </trkpt>
      <trkpt lat="47.31352" lon="-1.89487">
        <ele>23.68958</ele>
        <time>2009-11-04T08:45:35Z</time>
      </trkpt>
      <trkpt lat="47.31352" lon="-1.89475">
        <ele>23.20898</ele>
        <time>2009-11-04T08:45:39Z</time>
      </trkpt>
      <trkpt lat="47.31352" lon="-1.89473">
        <ele>23.68958</ele>
        <time>2009-11-04T08:45:44Z</time>
      </trkpt>
      <trkpt lat="47.31353" lon="-1.89469">
        <ele>23.20898</ele>
        <time>2009-11-04T08:45:52Z</time>
      </trkpt>
      <trkpt lat="47.31353" lon="-1.89462">
        <ele>23.20898</ele>
        <time>2009-11-04T08:45:56Z</time>
      </trkpt>
      <trkpt lat="47.31351" lon="-1.89436">
        <ele>22.72827</ele>
        <time>2009-11-04T08:46:02Z</time>
      </trkpt>
      <trkpt lat="47.31348" lon="-1.89392">
        <ele>21.76697</ele>
        <time>2009-11-04T08:46:10Z</time>
      </trkpt>
      <trkpt lat="47.31347" lon="-1.89366">
        <ele>21.76697</ele>
        <time>2009-11-04T08:46:16Z</time>
      </trkpt>
      <trkpt lat="47.31342" lon="-1.8936">
        <ele>21.76697</ele>
        <time>2009-11-04T08:46:20Z</time>
      </trkpt>
      <trkpt lat="47.31342" lon="-1.8936">
        <ele>21.28638</ele>
        <time>2009-11-04T08:46:28Z</time>
      </trkpt>
      <trkpt lat="47.31343" lon="-1.89359">
        <ele>21.76697</ele>
        <time>2009-11-04T08:46:35Z</time>
      </trkpt>
      <trkpt lat="47.31344" lon="-1.8936">
        <ele>21.76697</ele>
        <time>2009-11-04T08:46:57Z</time>
      </trkpt>
      <trkpt lat="47.31345" lon="-1.89357">
        <ele>20.80566</ele>
        <time>2009-11-04T08:47:22Z</time>
      </trkpt>
      <trkpt lat="47.31345" lon="-1.89357">
        <ele>20.80566</ele>
        <time>2009-11-04T08:47:33Z</time>
      </trkpt>
      <trkpt lat="47.31346" lon="-1.89348">
        <ele>20.80566</ele>
        <time>2009-11-04T08:47:37Z</time>
      </trkpt>
      <trkpt lat="47.31344" lon="-1.89323">
        <ele>20.80566</ele>
        <time>2009-11-04T08:47:43Z</time>
      </trkpt>
      <trkpt lat="47.31335" lon="-1.89277">
        <ele>19.84436</ele>
        <time>2009-11-04T08:47:51Z</time>
      </trkpt>
      <trkpt lat="47.31328" lon="-1.89232">
        <ele>19.36377</ele>
        <time>2009-11-04T08:47:59Z</time>
      </trkpt>
      <trkpt lat="47.31334" lon="-1.89198">
        <ele>18.88306</ele>
        <time>2009-11-04T08:48:05Z</time>
      </trkpt>
      <trkpt lat="47.31339" lon="-1.89175">
        <ele>19.36377</ele>
        <time>2009-11-04T08:48:10Z</time>
      </trkpt>
      <trkpt lat="47.31337" lon="-1.89168">
        <ele>18.88306</ele>
        <time>2009-11-04T08:48:14Z</time>
      </trkpt>
      <trkpt lat="47.31339" lon="-1.89167">
        <ele>19.36377</ele>
        <time>2009-11-04T08:48:25Z</time>
      </trkpt>
      <trkpt lat="47.31339" lon="-1.89168">
        <ele>17.92175</ele>
        <time>2009-11-04T08:52:26Z</time>
      </trkpt>
      <trkpt lat="47.31336" lon="-1.89163">
        <ele>17.44116</ele>
        <time>2009-11-04T08:52:52Z</time>
      </trkpt>
      <trkpt lat="47.31328" lon="-1.89157">
        <ele>17.44116</ele>
        <time>2009-11-04T08:52:56Z</time>
      </trkpt>
      <trkpt lat="47.31307" lon="-1.89136">
        <ele>17.44116</ele>
        <time>2009-11-04T08:53:04Z</time>
      </trkpt>
      <trkpt lat="47.31286" lon="-1.89113">
        <ele>16.47974</ele>
        <time>2009-11-04T08:53:11Z</time>
      </trkpt>
      <trkpt lat="47.31256" lon="-1.89084">
        <ele>16.47974</ele>
        <time>2009-11-04T08:53:19Z</time>
      </trkpt>
      <trkpt lat="47.31237" lon="-1.89062">
        <ele>15.99902</ele>
        <time>2009-11-04T08:53:26Z</time>
      </trkpt>
      <trkpt lat="47.31218" lon="-1.89041">
        <ele>15.51843</ele>
        <time>2009-11-04T08:53:33Z</time>
      </trkpt>
      <trkpt lat="47.312" lon="-1.89021">
        <ele>15.51843</ele>
        <time>2009-11-04T08:53:40Z</time>
      </trkpt>
      <trkpt lat="47.31184" lon="-1.89003">
        <ele>15.51843</ele>
        <time>2009-11-04T08:53:46Z</time>
      </trkpt>
      <trkpt lat="47.31159" lon="-1.88976">
        <ele>15.03772</ele>
        <time>2009-11-04T08:53:54Z</time>
      </trkpt>
      <trkpt lat="47.31133" lon="-1.88949">
        <ele>14.55701</ele>
        <time>2009-11-04T08:54:02Z</time>
      </trkpt>
      <trkpt lat="47.31115" lon="-1.88937">
        <ele>15.03772</ele>
        <time>2009-11-04T08:54:08Z</time>
      </trkpt>
      <trkpt lat="47.31092" lon="-1.88915">
        <ele>15.03772</ele>
        <time>2009-11-04T08:54:16Z</time>
      </trkpt>
      <trkpt lat="47.31091" lon="-1.88909">
        <ele>14.55701</ele>
        <time>2009-11-04T08:54:17Z</time>
      </trkpt>
      <trkpt lat="47.31092" lon="-1.8886">
        <ele>15.03772</ele>
        <time>2009-11-04T08:54:25Z</time>
      </trkpt>
      <trkpt lat="47.31098" lon="-1.88798">
        <ele>16.47974</ele>
        <time>2009-11-04T08:54:35Z</time>
      </trkpt>
      <trkpt lat="47.31104" lon="-1.88751">
        <ele>17.44116</ele>
        <time>2009-11-04T08:54:43Z</time>
      </trkpt>
      <trkpt lat="47.3111" lon="-1.88705">
        <ele>16.96045</ele>
        <time>2009-11-04T08:54:51Z</time>
      </trkpt>
      <trkpt lat="47.31109" lon="-1.88682">
        <ele>16.47974</ele>
        <time>2009-11-04T08:54:55Z</time>
      </trkpt>
      <trkpt lat="47.31093" lon="-1.88632">
        <ele>15.03772</ele>
        <time>2009-11-04T08:55:03Z</time>
      </trkpt>
      <trkpt lat="47.31075" lon="-1.88572">
        <ele>13.59583</ele>
        <time>2009-11-04T08:55:12Z</time>
      </trkpt>
      <trkpt lat="47.31068" lon="-1.88528">
        <ele>13.11511</ele>
        <time>2009-11-04T08:55:19Z</time>
      </trkpt>
      <trkpt lat="47.31066" lon="-1.88473">
        <ele>12.15381</ele>
        <time>2009-11-04T08:55:27Z</time>
      </trkpt>
      <trkpt lat="47.31073" lon="-1.88424">
        <ele>12.15381</ele>
        <time>2009-11-04T08:55:35Z</time>
      </trkpt>
      <trkpt lat="47.31073" lon="-1.88382">
        <ele>12.15381</ele>
        <time>2009-11-04T08:55:42Z</time>
      </trkpt>
      <trkpt lat="47.31069" lon="-1.88331">
        <ele>11.1925</ele>
        <time>2009-11-04T08:55:50Z</time>
      </trkpt>
      <trkpt lat="47.31067" lon="-1.883">
        <ele>11.67322</ele>
        <time>2009-11-04T08:55:55Z</time>
      </trkpt>
      <trkpt lat="47.31068" lon="-1.88246">
        <ele>10.71179</ele>
        <time>2009-11-04T08:56:03Z</time>
      </trkpt>
      <trkpt lat="47.3107" lon="-1.88206">
        <ele>11.67322</ele>
        <time>2009-11-04T08:56:10Z</time>
      </trkpt>
      <trkpt lat="47.31069" lon="-1.88166">
        <ele>11.67322</ele>
        <time>2009-11-04T08:56:17Z</time>
      </trkpt>
      <trkpt lat="47.3106" lon="-1.8812">
        <ele>11.1925</ele>
        <time>2009-11-04T08:56:25Z</time>
      </trkpt>
      <trkpt lat="47.31062" lon="-1.88086">
        <ele>11.1925</ele>
        <time>2009-11-04T08:56:31Z</time>
      </trkpt>
      <trkpt lat="47.31062" lon="-1.88058">
        <ele>10.2312</ele>
        <time>2009-11-04T08:56:35Z</time>
      </trkpt>
      <trkpt lat="47.31054" lon="-1.87994">
        <ele>10.2312</ele>
        <time>2009-11-04T08:56:44Z</time>
      </trkpt>
      <trkpt lat="47.31053" lon="-1.87939">
        <ele>11.1925</ele>
        <time>2009-11-04T08:56:52Z</time>
      </trkpt>
      <trkpt lat="47.31056" lon="-1.87911">
        <ele>11.67322</ele>
        <time>2009-11-04T08:56:57Z</time>
      </trkpt>
      <trkpt lat="47.31055" lon="-1.87903">
        <ele>11.67322</ele>
        <time>2009-11-04T08:56:59Z</time>
      </trkpt>
      <trkpt lat="47.31042" lon="-1.879">
        <ele>10.71179</ele>
        <time>2009-11-04T08:57:03Z</time>
      </trkpt>
      <trkpt lat="47.31001" lon="-1.8792">
        <ele>10.2312</ele>
        <time>2009-11-04T08:57:12Z</time>
      </trkpt>
      <trkpt lat="47.30967" lon="-1.87934">
        <ele>9.75061</ele>
        <time>2009-11-04T08:57:20Z</time>
      </trkpt>
      <trkpt lat="47.30953" lon="-1.87942">
        <ele>9.269897</ele>
        <time>2009-11-04T08:57:24Z</time>
      </trkpt>
      <trkpt lat="47.30949" lon="-1.87943">
        <ele>9.269897</ele>
        <time>2009-11-04T08:57:25Z</time>
      </trkpt>
      <trkpt lat="47.30933" lon="-1.87951">
        <ele>9.75061</ele>
        <time>2009-11-04T08:57:29Z</time>
      </trkpt>
      <trkpt lat="47.30902" lon="-1.87965">
        <ele>8.789185</ele>
        <time>2009-11-04T08:57:37Z</time>
      </trkpt>
      <trkpt lat="47.30875" lon="-1.87977">
        <ele>9.75061</ele>
        <time>2009-11-04T08:57:44Z</time>
      </trkpt>
      <trkpt lat="47.3086" lon="-1.87984">
        <ele>9.269897</ele>
        <time>2009-11-04T08:57:49Z</time>
      </trkpt>
      <trkpt lat="47.30843" lon="-1.87992">
        <ele>9.75061</ele>
        <time>2009-11-04T08:57:54Z</time>
      </trkpt>
      <trkpt lat="47.30832" lon="-1.87997">
        <ele>9.269897</ele>
        <time>2009-11-04T08:57:57Z</time>
      </trkpt>
      <trkpt lat="47.30792" lon="-1.88015">
        <ele>9.269897</ele>
        <time>2009-11-04T08:58:07Z</time>
      </trkpt>
      <trkpt lat="47.30771" lon="-1.88025">
        <ele>9.75061</ele>
        <time>2009-11-04T08:58:12Z</time>
      </trkpt>
      <trkpt lat="47.30739" lon="-1.88039">
        <ele>9.75061</ele>
        <time>2009-11-04T08:58:20Z</time>
      </trkpt>
      <trkpt lat="47.30705" lon="-1.88055">
        <ele>10.2312</ele>
        <time>2009-11-04T08:58:29Z</time>
      </trkpt>
      <trkpt lat="47.30686" lon="-1.88063">
        <ele>10.2312</ele>
        <time>2009-11-04T08:58:34Z</time>
      </trkpt>
      <trkpt lat="47.30655" lon="-1.88077">
        <ele>9.75061</ele>
        <time>2009-11-04T08:58:42Z</time>
      </trkpt>
      <trkpt lat="47.30627" lon="-1.8809">
        <ele>9.75061</ele>
        <time>2009-11-04T08:58:49Z</time>
      </trkpt>
      <trkpt lat="47.30586" lon="-1.88107">
        <ele>9.75061</ele>
        <time>2009-11-04T08:58:59Z</time>
      </trkpt>
      <trkpt lat="47.30555" lon="-1.88122">
        <ele>9.269897</ele>
        <time>2009-11-04T08:59:07Z</time>
      </trkpt>
      <trkpt lat="47.30528" lon="-1.88135">
        <ele>10.2312</ele>
        <time>2009-11-04T08:59:14Z</time>
      </trkpt>
      <trkpt lat="47.30493" lon="-1.88151">
        <ele>9.75061</ele>
        <time>2009-11-04T08:59:23Z</time>
      </trkpt>
      <trkpt lat="47.30467" lon="-1.88163">
        <ele>10.2312</ele>
        <time>2009-11-04T08:59:30Z</time>
      </trkpt>
      <trkpt lat="47.30461" lon="-1.88167">
        <ele>10.2312</ele>
        <time>2009-11-04T08:59:33Z</time>
      </trkpt>
      <trkpt lat="47.30458" lon="-1.88167">
        <ele>10.2312</ele>
        <time>2009-11-04T08:59:38Z</time>
      </trkpt>
      <trkpt lat="47.30453" lon="-1.88162">
        <ele>10.2312</ele>
        <time>2009-11-04T08:59:59Z</time>
      </trkpt>
      <trkpt lat="47.30453" lon="-1.88161">
        <ele>10.2312</ele>
        <time>2009-11-04T09:00:10Z</time>
      </trkpt>
      <trkpt lat="47.30456" lon="-1.88161">
        <ele>10.71179</ele>
        <time>2009-11-04T09:00:42Z</time>
      </trkpt>
      <trkpt lat="47.30451" lon="-1.8816">
        <ele>10.2312</ele>
        <time>2009-11-04T09:00:47Z</time>
      </trkpt>
      <trkpt lat="47.30437" lon="-1.88158">
        <ele>10.2312</ele>
        <time>2009-11-04T09:00:52Z</time>
      </trkpt>
      <trkpt lat="47.30406" lon="-1.88156">
        <ele>11.1925</ele>
        <time>2009-11-04T09:00:59Z</time>
      </trkpt>
      <trkpt lat="47.30374" lon="-1.88158">
        <ele>10.71179</ele>
        <time>2009-11-04T09:01:06Z</time>
      </trkpt>
      <trkpt lat="47.3036" lon="-1.88164">
        <ele>10.2312</ele>
        <time>2009-11-04T09:01:09Z</time>
      </trkpt>
      <trkpt lat="47.30338" lon="-1.88191">
        <ele>10.2312</ele>
        <time>2009-11-04T09:01:15Z</time>
      </trkpt>
      <trkpt lat="47.30331" lon="-1.88216">
        <ele>10.71179</ele>
        <time>2009-11-04T09:01:19Z</time>
      </trkpt>
      <trkpt lat="47.30331" lon="-1.88257">
        <ele>11.67322</ele>
        <time>2009-11-04T09:01:26Z</time>
      </trkpt>
      <trkpt lat="47.30332" lon="-1.88308">
        <ele>11.67322</ele>
        <time>2009-11-04T09:01:34Z</time>
      </trkpt>
      <trkpt lat="47.3033" lon="-1.88335">
        <ele>11.1925</ele>
        <time>2009-11-04T09:01:38Z</time>
      </trkpt>
      <trkpt lat="47.3033" lon="-1.88397">
        <ele>11.1925</ele>
        <time>2009-11-04T09:01:47Z</time>
      </trkpt>
      <trkpt lat="47.30329" lon="-1.88427">
        <ele>10.71179</ele>
        <time>2009-11-04T09:01:53Z</time>
      </trkpt>
      <trkpt lat="47.30323" lon="-1.88448">
        <ele>10.71179</ele>
        <time>2009-11-04T09:01:59Z</time>
      </trkpt>
      <trkpt lat="47.30322" lon="-1.8845">
        <ele>9.75061</ele>
        <time>2009-11-04T09:02:03Z</time>
      </trkpt>
      <trkpt lat="47.30321" lon="-1.8845">
        <ele>11.67322</ele>
        <time>2009-11-04T09:02:13Z</time>
      </trkpt>
      <trkpt lat="47.30317" lon="-1.88447">
        <ele>10.71179</ele>
        <time>2009-11-04T09:02:23Z</time>
      </trkpt>
      <trkpt lat="47.30316" lon="-1.88448">
        <ele>10.2312</ele>
        <time>2009-11-04T09:02:36Z</time>
      </trkpt>
      <trkpt lat="47.30316" lon="-1.88449">
        <ele>11.67322</ele>
        <time>2009-11-04T09:02:45Z</time>
      </trkpt>
      <trkpt lat="47.30303" lon="-1.88449">
        <ele>10.2312</ele>
        <time>2009-11-04T09:02:51Z</time>
      </trkpt>
      <trkpt lat="47.30284" lon="-1.8845">
        <ele>9.75061</ele>
        <time>2009-11-04T09:02:56Z</time>
      </trkpt>
      <trkpt lat="47.30247" lon="-1.88454">
        <ele>10.2312</ele>
        <time>2009-11-04T09:03:04Z</time>
      </trkpt>
      <trkpt lat="47.30218" lon="-1.8846">
        <ele>10.71179</ele>
        <time>2009-11-04T09:03:11Z</time>
      </trkpt>
      <trkpt lat="47.30201" lon="-1.88471">
        <ele>10.71179</ele>
        <time>2009-11-04T09:03:16Z</time>
      </trkpt>
    </trkseg>
  </trk>
</gpx>